Time;durP1;ratioP1;P1;durP2;ratioP2;P2;SDS_P1;SDS_P2;PMS_P1;PMS_P2;Temp;Humidity;BMP_temperature;BMP_pressure;BME280_temperature;BME280_humidity;BME280_pressure;Samples;Min_cycle;Max_cycle;Signal;HPM_P1;HPM_P2
2022/04/26 03:37:19;;;;;;;10.90;7.30;;;;;;;;;;4988835;28;20049;-74
2022/04/26 03:39:45;;;;;;;13.75;7.78;;;;;;;;;;4990501;28;20042;-74
2022/04/26 03:42:12;;;;;;;12.30;7.68;;;;;;;;;;4991168;28;20019;-74
2022/04/26 03:44:39;;;;;;;11.68;7.32;;;;;;;;;;4990638;28;20045;-74
2022/04/26 03:47:05;;;;;;;12.85;7.38;;;;;;;;;;4991886;28;20547;-73
2022/04/26 03:49:31;;;;;;;12.65;7.15;;;;;;;;;;4994381;28;20538;-73
2022/04/26 03:51:58;;;;;;;11.00;7.88;;;;;;;;;;4990972;28;20026;-74
2022/04/26 03:54:24;;;;;;;15.60;7.78;;;;;;;;;;4990910;28;20108;-74
2022/04/26 03:56:51;;;;;;;11.57;8.18;;;;;;;;;;4990601;28;20499;-74
2022/04/26 03:59:19;;;;;;;13.00;7.57;;;;;;;;;;4990514;28;20031;-74
2022/04/26 04:01:45;;;;;;;11.60;7.90;;;;;;;;;;4994406;28;20034;-74
2022/04/26 04:04:12;;;;;;;12.35;7.55;;;;;;;;;;4991670;28;20014;-73
2022/04/26 04:06:38;;;;;;;10.55;7.65;;;;;;;;;;4994920;28;20043;-74
2022/04/26 04:09:05;;;;;;;11.27;7.55;;;;;;;;;;4994694;28;20031;-74
2022/04/26 04:11:31;;;;;;;14.90;7.40;;;;;;;;;;4994519;28;20022;-74
2022/04/26 04:13:57;;;;;;;14.13;7.72;;;;;;;;;;4994783;28;20545;-73
2022/04/26 04:16:24;;;;;;;11.25;8.10;;;;;;;;;;4994896;28;20033;-73
2022/04/26 04:21:35;;;;;;;11.68;7.45;;;;;;;;;;4994449;28;20031;-74
2022/04/26 04:24:03;;;;;;;13.13;7.90;;;;;;;;;;4994310;28;20487;-73
2022/04/26 04:26:29;;;;;;;13.05;6.95;;;;;;;;;;4994433;28;20030;-73
2022/04/26 04:28:56;;;;;;;12.02;7.90;;;;;;;;;;4994673;28;20026;-73
2022/04/26 04:31:22;;;;;;;12.13;7.38;;;;;;;;;;4994411;28;20026;-73
2022/04/26 04:33:48;;;;;;;10.40;7.43;;;;;;;;;;4995033;28;20038;-74
2022/04/26 04:36:15;;;;;;;13.63;7.80;;;;;;;;;;4993842;28;20035;-73
2022/04/26 04:38:41;;;;;;;15.18;8.23;;;;;;;;;;4994233;28;20034;-73
2022/04/26 04:41:08;;;;;;;12.50;7.85;;;;;;;;;;4994212;28;20018;-73
2022/04/26 04:43:34;;;;;;;11.52;8.18;;;;;;;;;;4994428;28;20030;-73
2022/04/26 04:46:01;;;;;;;11.95;7.90;;;;;;;;;;4994353;28;20521;-73
2022/04/26 04:48:28;;;;;;;13.18;8.40;;;;;;;;;;4994227;28;20033;-73
2022/04/26 04:50:54;;;;;;;11.75;7.07;;;;;;;;;;4993318;28;20064;-73
2022/04/26 04:53:21;;;;;;;13.98;8.15;;;;;;;;;;4993862;28;20030;-73
2022/04/26 04:55:48;;;;;;;14.10;7.97;;;;;;;;;;4994328;28;20034;-74
2022/04/26 04:58:14;;;;;;;12.32;8.07;;;;;;;;;;4994055;28;20502;-73
2022/04/26 05:00:41;;;;;;;10.80;7.50;;;;;;;;;;4994276;28;20032;-73
2022/04/26 05:03:07;;;;;;;11.82;8.00;;;;;;;;;;4993788;28;20022;-73
2022/04/26 05:05:33;;;;;;;9.15;7.32;;;;;;;;;;4993279;28;20026;-73
2022/04/26 05:08:00;;;;;;;12.95;8.02;;;;;;;;;;4994072;28;20026;-73
2022/04/26 05:10:26;;;;;;;14.38;8.07;;;;;;;;;;4993460;28;20034;-74
2022/04/26 05:12:53;;;;;;;10.15;7.57;;;;;;;;;;4994043;28;20048;-73
2022/04/26 05:15:19;;;;;;;11.63;7.55;;;;;;;;;;4993557;28;20021;-73
2022/04/26 05:17:45;;;;;;;14.13;7.63;;;;;;;;;;4993781;28;20022;-73
2022/04/26 05:20:12;;;;;;;11.85;7.22;;;;;;;;;;4993210;28;20053;-73
2022/04/26 05:25:23;;;;;;;18.50;9.18;;;;;;;;;;4991396;28;20015;-74
2022/04/26 05:27:49;;;;;;;14.32;8.30;;;;;;;;;;4989434;28;20039;-74
2022/04/26 05:30:16;;;;;;;12.25;8.52;;;;;;;;;;4993094;28;20407;-74
2022/04/26 05:32:42;;;;;;;13.10;8.05;;;;;;;;;;4992775;28;20030;-74
2022/04/26 05:35:10;;;;;;;17.83;8.23;;;;;;;;;;4993249;28;20022;-74
2022/04/26 05:37:37;;;;;;;14.95;8.57;;;;;;;;;;4993286;28;20032;-74
2022/04/26 05:40:03;;;;;;;10.88;7.53;;;;;;;;;;4993450;28;20037;-74
2022/04/26 05:42:30;;;;;;;15.93;8.10;;;;;;;;;;4993186;28;20046;-73
2022/04/26 05:44:57;;;;;;;15.10;7.68;;;;;;;;;;4992717;28;20046;-74
2022/04/26 05:47:23;;;;;;;11.02;7.95;;;;;;;;;;4992478;28;20049;-74
2022/04/26 05:49:49;;;;;;;12.55;8.75;;;;;;;;;;4993013;28;20022;-74
2022/04/26 05:52:16;;;;;;;14.93;7.82;;;;;;;;;;4991894;28;20052;-74
2022/04/26 05:54:43;;;;;;;13.18;7.88;;;;;;;;;;4987799;28;20026;-74
2022/04/26 05:57:09;;;;;;;10.60;6.57;;;;;;;;;;4988751;28;20022;-74
2022/04/26 05:59:35;;;;;;;10.40;6.85;;;;;;;;;;4988380;28;20038;-74
2022/04/26 06:02:02;;;;;;;7.53;5.50;;;;;;;;;;4989490;28;20031;-74
2022/04/26 06:04:29;;;;;;;11.30;5.80;;;;;;;;;;4991463;28;20018;-74
2022/04/26 06:06:55;;;;;;;10.20;6.45;;;;;;;;;;4993112;28;20449;-74
2022/04/26 06:09:21;;;;;;;9.13;6.03;;;;;;;;;;4998354;28;20468;-74
2022/04/26 06:11:48;;;;;;;11.68;5.25;;;;;;;;;;4986381;28;20033;-74
2022/04/26 06:14:15;;;;;;;11.55;5.68;;;;;;;;;;4994602;28;20436;-74
2022/04/26 06:16:41;;;;;;;9.05;5.07;;;;;;;;;;4991847;28;20484;-74
2022/04/26 06:19:08;;;;;;;8.73;5.38;;;;;;;;;;4989093;28;20033;-74
2022/04/26 06:21:34;;;;;;;8.52;4.40;;;;;;;;;;4990478;28;20385;-74
2022/04/26 06:24:00;;;;;;;9.20;4.82;;;;;;;;;;4991873;28;20030;-74
2022/04/26 06:26:26;;;;;;;9.02;5.18;;;;;;;;;;4990592;28;20031;-74
2022/04/26 06:28:53;;;;;;;10.77;5.03;;;;;;;;;;4990777;28;20026;-74
2022/04/26 06:31:19;;;;;;;11.90;5.13;;;;;;;;;;5004288;28;20026;-74
2022/04/26 06:33:45;;;;;;;7.22;4.50;;;;;;;;;;4992173;28;20034;-75
2022/04/26 06:36:12;;;;;;;10.07;4.50;;;;;;;;;;4985887;28;20142;-73
2022/04/26 06:38:38;;;;;;;7.90;4.05;;;;;;;;;;5002587;28;20018;-73
2022/04/26 06:41:05;;;;;;;6.97;4.47;;;;;;;;;;4979984;28;20034;-74
2022/04/26 06:43:33;;;;;;;8.00;5.13;;;;;;;;;;4991690;28;20037;-74
2022/04/26 06:46:01;;;;;;;6.68;4.35;;;;;;;;;;4990985;28;20054;-74
2022/04/26 06:48:30;;;;;;;7.32;3.97;;;;;;;;;;4997326;28;20370;-75
2022/04/26 06:50:57;;;;;;;8.52;5.10;;;;;;;;;;4988397;28;20034;-74
2022/04/26 06:53:23;;;;;;;7.53;4.45;;;;;;;;;;4995344;28;20510;-74
2022/04/26 06:55:50;;;;;;;8.55;4.65;;;;;;;;;;4991065;28;20030;-74
2022/04/26 06:58:17;;;;;;;6.80;4.68;;;;;;;;;;4991690;28;20034;-74
2022/04/26 07:00:45;;;;;;;6.10;4.13;;;;;;;;;;4992373;28;20476;-74
2022/04/26 07:03:11;;;;;;;6.00;4.45;;;;;;;;;;4990605;28;20135;-74
2022/04/26 07:05:38;;;;;;;6.25;3.72;;;;;;;;;;4991710;28;20081;-75
2022/04/26 07:08:04;;;;;;;8.73;4.25;;;;;;;;;;4987680;28;20492;-74
2022/04/26 07:10:31;;;;;;;8.02;4.10;;;;;;;;;;4990291;28;20080;-74
2022/04/26 07:12:57;;;;;;;6.35;4.10;;;;;;;;;;4989275;28;20038;-74
2022/04/26 07:15:24;;;;;;;9.82;3.45;;;;;;;;;;4990532;28;20023;-75
2022/04/26 07:17:50;;;;;;;10.70;4.40;;;;;;;;;;4996286;28;20034;-74
2022/04/26 07:20:16;;;;;;;5.90;4.40;;;;;;;;;;4995691;28;20412;-75
2022/04/26 07:22:43;;;;;;;7.30;4.22;;;;;;;;;;5008231;28;20047;-74
2022/04/26 07:25:12;;;;;;;6.18;4.53;;;;;;;;;;5005296;28;20033;-75
2022/04/26 07:27:42;;;;;;;6.82;3.90;;;;;;;;;;4995529;28;20048;-75
2022/04/26 07:30:08;;;;;;;8.73;4.20;;;;;;;;;;4995812;28;20364;-74
2022/04/26 07:35:20;;;;;;;7.20;4.25;;;;;;;;;;4990853;28;20036;-75
2022/04/26 07:37:46;;;;;;;8.23;4.40;;;;;;;;;;4998866;28;20042;-75
2022/04/26 07:40:12;;;;;;;7.70;4.45;;;;;;;;;;5006874;28;20031;-75
2022/04/26 07:42:39;;;;;;;9.27;4.05;;;;;;;;;;4995163;28;20034;-74
2022/04/26 07:45:06;;;;;;;10.07;4.38;;;;;;;;;;4994050;28;20034;-75
2022/04/26 07:47:32;;;;;;;7.20;4.07;;;;;;;;;;4997293;28;20417;-75
2022/04/26 07:49:59;;;;;;;8.73;4.20;;;;;;;;;;4994589;28;20032;-75
2022/04/26 07:52:27;;;;;;;6.35;4.68;;;;;;;;;;5005734;28;20483;-75
2022/04/26 07:54:53;;;;;;;9.02;4.05;;;;;;;;;;5005908;28;20032;-75
2022/04/26 07:57:19;;;;;;;7.25;3.88;;;;;;;;;;4996522;28;20031;-74
2022/04/26 07:59:46;;;;;;;10.00;4.50;;;;;;;;;;4999819;28;20030;-75
2022/04/26 08:02:12;;;;;;;4.85;3.97;;;;;;;;;;4990739;28;20034;-74
2022/04/26 08:04:41;;;;;;;8.43;4.20;;;;;;;;;;4977543;28;20141;-75
2022/04/26 08:07:08;;;;;;;7.05;4.25;;;;;;;;;;4990854;28;20503;-75
2022/04/26 08:09:38;;;;;;;6.65;4.40;;;;;;;;;;4994137;28;20026;-75
2022/04/26 08:12:04;;;;;;;9.60;4.47;;;;;;;;;;4994632;28;20029;-73
2022/04/26 08:14:31;;;;;;;9.38;4.20;;;;;;;;;;4993079;28;20026;-73
2022/04/26 08:16:57;;;;;;;7.68;4.50;;;;;;;;;;4994445;28;20026;-73
2022/04/26 08:19:23;;;;;;;8.05;3.80;;;;;;;;;;4994368;28;20029;-73
2022/04/26 08:21:50;;;;;;;11.18;4.75;;;;;;;;;;4994830;28;20479;-73
2022/04/26 08:29:46;;;;;;;7.75;4.13;;;;;;;;;;4994067;28;20032;-73
2022/04/26 08:32:13;;;;;;;9.45;4.18;;;;;;;;;;4991138;28;20035;-73
2022/04/26 08:34:40;;;;;;;6.63;4.53;;;;;;;;;;5009628;28;20088;-73
2022/04/26 08:37:06;;;;;;;7.07;4.10;;;;;;;;;;4993305;28;20022;-73
2022/04/26 08:39:33;;;;;;;6.90;4.72;;;;;;;;;;4996205;28;20034;-73
2022/04/26 08:42:00;;;;;;;10.45;4.70;;;;;;;;;;4989011;28;20509;-73
2022/04/26 08:44:27;;;;;;;9.20;4.28;;;;;;;;;;4993758;28;20037;-73
2022/04/26 08:52:29;;;;;;;9.35;4.30;;;;;;;;;;5005053;28;20394;-73
2022/04/26 08:54:56;;;;;;;7.57;4.25;;;;;;;;;;5025992;28;20047;-73
2022/04/26 08:57:22;;;;;;;6.65;4.40;;;;;;;;;;5019361;28;20048;-73
2022/04/26 08:59:49;;;;;;;4.95;4.05;;;;;;;;;;5017439;28;20014;-73
2022/04/26 09:02:18;;;;;;;9.30;4.00;;;;;;;;;;5020989;28;20034;-73
2022/04/26 09:04:45;;;;;;;8.73;4.60;;;;;;;;;;5026085;28;20030;-73
2022/04/26 09:07:28;;;;;;;9.80;4.40;;;;;;;;;;5024069;28;20025;-72
2022/04/26 09:10:07;;;;;;;9.98;4.32;;;;;;;;;;5024728;28;20045;-73
2022/04/26 09:12:53;;;;;;;10.07;4.40;;;;;;;;;;5011653;28;20038;-73
2022/04/26 09:15:19;;;;;;;7.38;4.57;;;;;;;;;;5020403;28;20588;-72
2022/04/26 09:17:46;;;;;;;6.25;4.18;;;;;;;;;;5020290;28;20058;-73
2022/04/26 09:20:12;;;;;;;9.45;4.57;;;;;;;;;;5008750;28;20026;-73
2022/04/26 09:22:39;;;;;;;7.05;3.92;;;;;;;;;;5042203;28;20048;-73
2022/04/26 09:25:08;;;;;;;8.95;4.15;;;;;;;;;;5030384;28;20395;-73
2022/04/26 09:27:38;;;;;;;5.23;4.20;;;;;;;;;;5031972;28;20044;-73
2022/04/26 09:30:12;;;;;;;5.30;3.88;;;;;;;;;;4995357;28;20511;-73
2022/04/26 09:32:45;;;;;;;4.95;3.88;;;;;;;;;;4988020;28;20062;-73
2022/04/26 09:35:19;;;;;;;6.65;3.90;;;;;;;;;;4988171;28;20041;-73
2022/04/26 09:37:45;;;;;;;5.22;3.60;;;;;;;;;;4993402;28;20026;-73
2022/04/26 09:40:12;;;;;;;5.82;3.88;;;;;;;;;;4996393;28;20034;-73
2022/04/26 09:42:38;;;;;;;6.03;3.72;;;;;;;;;;4991380;28;20536;-74
2022/04/26 09:45:06;;;;;;;5.32;3.70;;;;;;;;;;5003218;28;20507;-73
2022/04/26 09:47:39;;;;;;;4.88;3.53;;;;;;;;;;4991711;28;20032;-73
2022/04/26 09:50:10;;;;;;;6.95;4.13;;;;;;;;;;4987760;28;20104;-74
2022/04/26 09:52:37;;;;;;;8.70;3.92;;;;;;;;;;4988175;28;20048;-73
2022/04/26 09:55:05;;;;;;;4.78;3.63;;;;;;;;;;4991863;28;20046;-74
2022/04/26 09:57:35;;;;;;;5.28;3.85;;;;;;;;;;4991489;28;20026;-73
2022/04/26 10:00:03;;;;;;;5.93;3.40;;;;;;;;;;5000642;28;20029;-73
2022/04/26 10:02:33;;;;;;;8.35;3.38;;;;;;;;;;4981920;28;20040;-73
2022/04/26 10:05:02;;;;;;;4.57;3.50;;;;;;;;;;4988612;28;20391;-73
2022/04/26 10:07:30;;;;;;;3.60;2.95;;;;;;;;;;4991347;28;20045;-73
2022/04/26 10:09:57;;;;;;;5.15;3.22;;;;;;;;;;4991302;28;20123;-73
2022/04/26 10:12:23;;;;;;;4.20;3.40;;;;;;;;;;4991380;28;20023;-73
2022/04/26 10:14:49;;;;;;;6.90;3.22;;;;;;;;;;4991233;28;20479;-73
2022/04/26 10:17:19;;;;;;;4.68;3.40;;;;;;;;;;4991055;28;20056;-73
2022/04/26 10:19:46;;;;;;;4.38;2.90;;;;;;;;;;4990869;28;20672;-73
2022/04/26 10:22:17;;;;;;;6.80;3.35;;;;;;;;;;5007871;28;20034;-73
2022/04/26 10:25:01;;;;;;;5.30;3.35;;;;;;;;;;4988321;28;20037;-74
2022/04/26 10:27:29;;;;;;;6.32;3.60;;;;;;;;;;4986670;28;20026;-73
2022/04/26 10:29:55;;;;;;;4.28;3.22;;;;;;;;;;4986695;28;20472;-73
2022/04/26 10:32:29;;;;;;;3.30;2.67;;;;;;;;;;4986927;28;20029;-73
2022/04/26 10:34:56;;;;;;;4.68;3.10;;;;;;;;;;4989203;28;20057;-73
2022/04/26 10:37:22;;;;;;;5.45;2.90;;;;;;;;;;4988045;28;20050;-73
2022/04/26 10:40:02;;;;;;;4.72;2.90;;;;;;;;;;4987184;28;20401;-73
2022/04/26 10:42:28;;;;;;;;;;;;;;;;;;4992781;28;20022;-73
2022/04/26 10:45:07;;;;;;;6.22;3.10;;;;;;;;;;4991021;28;19926;-73
2022/04/26 10:47:34;;;;;;;3.97;2.38;;;;;;;;;;4990672;28;20028;-73
2022/04/26 10:50:02;;;;;;;3.90;2.15;;;;;;;;;;4990560;28;20036;-74
2022/04/26 10:52:35;;;;;;;3.90;2.40;;;;;;;;;;4990520;28;20022;-74
2022/04/26 10:55:06;;;;;;;5.22;2.80;;;;;;;;;;4991570;28;20026;-73
2022/04/26 10:57:33;;;;;;;3.90;2.15;;;;;;;;;;4990895;28;20549;-73
2022/04/26 11:00:01;;;;;;;3.60;1.98;;;;;;;;;;4990984;28;20033;-73
2022/04/26 11:02:29;;;;;;;3.25;2.40;;;;;;;;;;4991052;28;20479;-73
2022/04/26 11:05:05;;;;;;;5.85;2.53;;;;;;;;;;4990993;28;20023;-73
2022/04/26 11:07:32;;;;;;;2.72;2.45;;;;;;;;;;4990022;28;20018;-73
2022/04/26 11:09:59;;;;;;;3.78;2.30;;;;;;;;;;4991557;28;20023;-73
2022/04/26 11:12:25;;;;;;;6.30;2.50;;;;;;;;;;4996856;28;20026;-73
2022/04/26 11:14:53;;;;;;;3.90;2.47;;;;;;;;;;4984732;28;20033;-73
2022/04/26 11:17:20;;;;;;;5.97;2.35;;;;;;;;;;4990742;28;20034;-73
2022/04/26 11:19:53;;;;;;;5.00;2.42;;;;;;;;;;4990852;28;20049;-73
2022/04/26 11:22:20;;;;;;;4.43;2.30;;;;;;;;;;4990466;28;20495;-73
2022/04/26 11:30:25;;;;;;;4.80;2.40;;;;;;;;;;4988139;28;20018;-73
2022/04/26 11:32:51;;;;;;;4.07;2.30;;;;;;;;;;4990902;28;20014;-73
2022/04/26 11:35:19;;;;;;;3.67;2.38;;;;;;;;;;4989234;28;20034;-73
2022/04/26 11:37:46;;;;;;;6.03;2.38;;;;;;;;;;4988901;28;20056;-74
2022/04/26 11:40:21;;;;;;;4.20;2.55;;;;;;;;;;4996363;28;20024;-73
2022/04/26 11:42:48;;;;;;;4.97;2.55;;;;;;;;;;4986511;28;20316;-73
2022/04/26 11:45:14;;;;;;;3.75;2.50;;;;;;;;;;4986492;28;20039;-73
2022/04/26 11:47:40;;;;;;;3.28;2.08;;;;;;;;;;4986117;28;20033;-74
2022/04/26 11:50:10;;;;;;;4.10;2.47;;;;;;;;;;4986301;28;20034;-73
2022/04/26 11:52:36;;;;;;;5.25;2.55;;;;;;;;;;4989897;28;20045;-73
2022/04/26 11:55:04;;;;;;;3.17;2.47;;;;;;;;;;4985372;28;20411;-73
2022/04/26 11:57:32;;;;;;;6.00;2.17;;;;;;;;;;4991176;28;20092;-73
2022/04/26 11:59:58;;;;;;;2.63;2.10;;;;;;;;;;4991260;28;20027;-74
2022/04/26 12:02:25;;;;;;;3.50;2.35;;;;;;;;;;4991725;28;20036;-73
2022/04/26 12:04:52;;;;;;;2.45;1.90;;;;;;;;;;4992255;28;20025;-73
2022/04/26 12:07:18;;;;;;;3.33;2.20;;;;;;;;;;4995340;28;20030;-74
2022/04/26 12:09:45;;;;;;;3.45;2.30;;;;;;;;;;4988388;28;20040;-73
2022/04/26 12:12:12;;;;;;;3.15;2.10;;;;;;;;;;4988335;28;20024;-73
2022/04/26 12:14:42;;;;;;;3.38;2.10;;;;;;;;;;4989079;28;20068;-73
2022/04/26 12:17:29;;;;;;;4.45;2.10;;;;;;;;;;4989976;28;20039;-73
2022/04/26 12:19:56;;;;;;;7.50;2.70;;;;;;;;;;4977649;28;20019;-73
2022/04/26 12:22:28;;;;;;;5.88;2.38;;;;;;;;;;4990317;28;20442;-74
2022/04/26 12:24:54;;;;;;;3.38;2.15;;;;;;;;;;4993859;28;20653;-73
2022/04/26 12:27:32;;;;;;;2.67;2.20;;;;;;;;;;4992989;28;20378;-73
2022/04/26 12:29:59;;;;;;;5.20;2.00;;;;;;;;;;4992716;28;20488;-73
2022/04/26 12:32:26;;;;;;;2.78;2.05;;;;;;;;;;4994638;28;20026;-73
2022/04/26 12:34:54;;;;;;;4.60;2.20;;;;;;;;;;4990556;28;20491;-73
2022/04/26 12:37:21;;;;;;;5.32;2.38;;;;;;;;;;4990314;28;20034;-76
2022/04/26 12:39:50;;;;;;;4.22;2.10;;;;;;;;;;4992134;28;20040;-75
2022/04/26 12:42:28;;;;;;;3.10;2.20;;;;;;;;;;4988613;28;20049;-75
2022/04/26 12:44:56;;;;;;;5.38;2.17;;;;;;;;;;4991531;28;20050;-76
2022/04/26 12:52:55;;;;;;;2.83;2.03;;;;;;;;;;4977625;28;20069;-76
2022/04/26 12:55:29;;;;;;;5.18;2.50;;;;;;;;;;4990468;28;20038;-76
2022/04/26 12:57:56;;;;;;;4.30;2.38;;;;;;;;;;4991373;28;20034;-76
2022/04/26 13:00:24;;;;;;;2.92;2.25;;;;;;;;;;4992461;28;20027;-75
2022/04/26 13:02:51;;;;;;;4.90;2.17;;;;;;;;;;4992170;28;20488;-75
2022/04/26 13:05:19;;;;;;;4.20;2.33;;;;;;;;;;4992561;28;20025;-76
2022/04/26 13:07:49;;;;;;;4.20;2.35;;;;;;;;;;4991761;28;20505;-76
2022/04/26 13:10:19;;;;;;;3.95;2.45;;;;;;;;;;4995962;28;20537;-77
2022/04/26 13:12:46;;;;;;;5.63;1.88;;;;;;;;;;4988457;28;20533;-75
2022/04/26 13:15:15;;;;;;;4.80;2.47;;;;;;;;;;4987244;28;20270;-76
2022/04/26 13:17:42;;;;;;;5.07;2.20;;;;;;;;;;4991205;28;20042;-76
2022/04/26 13:20:10;;;;;;;2.95;2.10;;;;;;;;;;4987795;28;20019;-76
2022/04/26 13:22:37;;;;;;;4.22;2.33;;;;;;;;;;5005884;28;20026;-75
2022/04/26 13:25:05;;;;;;;3.95;2.35;;;;;;;;;;4988442;28;20015;-75
2022/04/26 13:27:32;;;;;;;3.35;2.30;;;;;;;;;;4987587;28;20430;-75
2022/04/26 13:29:59;;;;;;;5.57;2.60;;;;;;;;;;4991360;28;20023;-75
2022/04/26 13:32:25;;;;;;;5.60;2.58;;;;;;;;;;4985932;28;20038;-75
2022/04/26 13:34:52;;;;;;;5.43;2.38;;;;;;;;;;5002599;28;20030;-75
2022/04/26 13:37:19;;;;;;;5.13;2.63;;;;;;;;;;4995745;28;20486;-75
2022/04/26 13:39:46;;;;;;;3.67;2.20;;;;;;;;;;4995051;28;20034;-75
2022/04/26 13:42:13;;;;;;;4.10;2.25;;;;;;;;;;4990867;28;20018;-75
2022/04/26 13:44:41;;;;;;;2.50;2.20;;;;;;;;;;4990055;28;20052;-75
2022/04/26 13:47:08;;;;;;;2.80;2.25;;;;;;;;;;4988337;28;20030;-75
2022/04/26 13:49:41;;;;;;;4.97;2.90;;;;;;;;;;4990783;28;20395;-75
2022/04/26 13:52:09;;;;;;;2.95;2.20;;;;;;;;;;4990917;28;20034;-75
2022/04/26 13:54:36;;;;;;;4.68;2.55;;;;;;;;;;4987875;28;20026;-75
2022/04/26 13:57:02;;;;;;;5.13;2.75;;;;;;;;;;4991573;28;20169;-75
2022/04/26 13:59:29;;;;;;;4.13;2.40;;;;;;;;;;4991455;28;20018;-74
2022/04/26 14:01:56;;;;;;;4.10;2.53;;;;;;;;;;4991032;28;20039;-75
2022/04/26 14:04:22;;;;;;;5.68;2.55;;;;;;;;;;4991527;28;20026;-75
2022/04/26 14:06:49;;;;;;;4.65;3.03;;;;;;;;;;4990805;28;20014;-75
2022/04/26 14:09:19;;;;;;;4.50;2.42;;;;;;;;;;4990619;28;20037;-75
2022/04/26 14:11:45;;;;;;;5.43;2.38;;;;;;;;;;4989039;28;20025;-74
2022/04/26 14:22:32;;;;;;;4.38;2.40;;;;;;;;;;4991434;28;20022;-75
2022/04/26 14:25:03;;;;;;;4.65;2.58;;;;;;;;;;5001790;28;20033;-75
2022/04/26 14:27:31;;;;;;;5.82;2.60;;;;;;;;;;4991662;28;20037;-75
2022/04/26 14:29:57;;;;;;;7.68;2.40;;;;;;;;;;4991878;28;20523;-75
2022/04/26 14:32:24;;;;;;;6.85;2.78;;;;;;;;;;4986441;28;20030;-75
2022/04/26 14:34:50;;;;;;;4.70;2.20;;;;;;;;;;4989780;28;20088;-75
2022/04/26 14:37:17;;;;;;;4.30;2.50;;;;;;;;;;4987743;28;20060;-75
2022/04/26 14:39:44;;;;;;;4.47;2.50;;;;;;;;;;4987031;28;20027;-75
2022/04/26 14:42:10;;;;;;;5.30;2.22;;;;;;;;;;4985597;28;20032;-75
2022/04/26 14:44:37;;;;;;;5.85;2.67;;;;;;;;;;4985978;28;20046;-75
2022/04/26 14:47:04;;;;;;;3.92;2.30;;;;;;;;;;4988219;28;20033;-75
2022/04/26 14:49:30;;;;;;;4.53;2.10;;;;;;;;;;4989342;28;20088;-75
2022/04/26 14:51:57;;;;;;;5.10;2.55;;;;;;;;;;4986485;28;20413;-75
2022/04/26 14:54:23;;;;;;;4.25;2.28;;;;;;;;;;4990496;28;20021;-75
2022/04/26 14:56:50;;;;;;;7.70;2.40;;;;;;;;;;4986501;28;20041;-75
2022/04/26 14:59:20;;;;;;;3.33;2.15;;;;;;;;;;4986064;28;20050;-76
2022/04/26 15:01:48;;;;;;;5.97;2.23;;;;;;;;;;4990773;28;20126;-75
2022/04/26 15:04:15;;;;;;;5.72;2.45;;;;;;;;;;4987511;28;20387;-76
2022/04/26 15:06:42;;;;;;;6.82;2.47;;;;;;;;;;4990333;28;20038;-76
2022/04/26 15:17:25;;;;;;;12.32;1.88;;;;;;;;;;5011080;28;20643;-76
2022/04/26 15:19:51;;;;;;;9.02;2.33;;;;;;;;;;5023617;28;20036;-76
2022/04/26 15:22:22;;;;;;;3.38;1.92;;;;;;;;;;5025565;28;20490;-75
2022/04/26 15:24:49;;;;;;;4.57;1.90;;;;;;;;;;5012503;28;20034;-75
2022/04/26 15:27:15;;;;;;;3.08;2.28;;;;;;;;;;4998410;28;20068;-76
2022/04/26 15:29:42;;;;;;;4.97;2.45;;;;;;;;;;5004359;28;20449;-75
2022/04/26 15:32:09;;;;;;;8.77;4.43;;;;;;;;;;5012137;28;20033;-75
2022/04/26 15:34:36;;;;;;;3.88;1.98;;;;;;;;;;5006825;28;20398;-75
2022/04/26 15:37:02;;;;;;;3.67;1.90;;;;;;;;;;5014793;28;20061;-75
2022/04/26 15:39:29;;;;;;;5.57;1.90;;;;;;;;;;5016970;28;20042;-75
2022/04/26 15:41:56;;;;;;;5.75;1.75;;;;;;;;;;5016464;28;20026;-75
2022/04/26 15:44:23;;;;;;;7.50;2.78;;;;;;;;;;5016858;28;20083;-75
2022/04/26 15:46:52;;;;;;;4.95;2.25;;;;;;;;;;5013474;28;20096;-75
2022/04/26 15:49:20;;;;;;;7.28;2.25;;;;;;;;;;5015666;28;20044;-75
2022/04/26 15:51:47;;;;;;;8.60;2.10;;;;;;;;;;4988423;28;20459;-75
2022/04/26 15:54:16;;;;;;;3.15;1.55;;;;;;;;;;4968010;28;20021;-75
2022/04/26 15:56:43;;;;;;;3.85;1.80;;;;;;;;;;4971129;28;20034;-74
2022/04/26 15:59:10;;;;;;;8.30;2.35;;;;;;;;;;4972148;28;20026;-74
2022/04/26 16:01:39;;;;;;;3.08;1.85;;;;;;;;;;4974815;28;20034;-75
2022/04/26 16:04:06;;;;;;;4.93;2.25;;;;;;;;;;4975918;28;20037;-75
2022/04/26 16:06:37;;;;;;;3.72;2.05;;;;;;;;;;4975401;28;20480;-75
2022/04/26 16:22:50;;;;;;;4.45;1.98;;;;;;;;;;4960956;28;20033;-75
2022/04/26 16:25:17;;;;;;;4.90;1.70;;;;;;;;;;4975132;28;20029;-75
2022/04/26 16:27:43;;;;;;;3.72;1.88;;;;;;;;;;4975615;28;20041;-75
2022/04/26 16:30:10;;;;;;;4.45;1.95;;;;;;;;;;4974921;28;20034;-75
2022/04/26 16:32:38;;;;;;;8.35;2.00;;;;;;;;;;4974919;28;20034;-75
2022/04/26 16:35:06;;;;;;;5.38;1.92;;;;;;;;;;4974977;28;20369;-75
2022/04/26 16:37:32;;;;;;;4.72;2.00;;;;;;;;;;4974983;28;20043;-75
2022/04/26 16:39:59;;;;;;;4.88;1.70;;;;;;;;;;4975011;28;20026;-75
2022/04/26 16:42:25;;;;;;;4.20;2.13;;;;;;;;;;4974959;28;20027;-75
2022/04/26 16:44:51;;;;;;;2.42;1.58;;;;;;;;;;4983866;28;20042;-75
2022/04/26 16:47:18;;;;;;;4.18;2.03;;;;;;;;;;4993817;28;20031;-75
2022/04/26 16:49:44;;;;;;;5.05;2.22;;;;;;;;;;4994136;28;20022;-75
2022/04/26 16:52:11;;;;;;;3.55;1.73;;;;;;;;;;4990544;28;20029;-75
2022/04/26 16:54:38;;;;;;;2.30;1.80;;;;;;;;;;4989303;28;20018;-75
2022/04/26 16:57:04;;;;;;;6.72;2.30;;;;;;;;;;4989733;28;20030;-75
2022/04/26 16:59:31;;;;;;;4.70;1.90;;;;;;;;;;4989516;28;20038;-75
2022/04/26 17:01:57;;;;;;;7.20;1.83;;;;;;;;;;4992193;28;20037;-75
2022/04/26 17:04:24;;;;;;;2.97;1.83;;;;;;;;;;4991889;28;20041;-75
2022/04/26 17:06:50;;;;;;;4.47;2.10;;;;;;;;;;4989990;28;20022;-74
2022/04/26 17:09:20;;;;;;;5.90;2.10;;;;;;;;;;4989091;28;20406;-75
2022/04/26 17:11:50;;;;;;;5.75;2.67;;;;;;;;;;4993674;28;20426;-75
2022/04/26 17:14:17;;;;;;;4.53;1.67;;;;;;;;;;4993820;28;20029;-75
2022/04/26 17:16:45;;;;;;;3.92;2.08;;;;;;;;;;4978436;28;20018;-75
2022/04/26 17:19:15;;;;;;;4.93;2.00;;;;;;;;;;4990188;28;20032;-75
2022/04/26 17:21:41;;;;;;;6.60;2.13;;;;;;;;;;4989367;28;20026;-75
2022/04/26 17:25:13;;;;;;;5.43;2.40;;;;;;;;;;4988803;28;20031;-75
2022/04/26 17:26:56;;;;;;;10.32;2.90;;;;;;;;;;4989054;28;20030;-75
2022/04/26 17:29:22;;;;;;;7.25;2.65;;;;;;;;;;4989004;28;20514;-75
2022/04/26 17:31:52;;;;;;;5.57;2.30;;;;;;;;;;4993103;28;20030;-75
2022/04/26 17:34:22;;;;;;;3.95;2.30;;;;;;;;;;4991102;28;20037;-75
2022/04/26 17:36:49;;;;;;;2.90;1.48;;;;;;;;;;5003575;28;20038;-75
2022/04/26 17:39:16;;;;;;;3.05;1.60;;;;;;;;;;4993013;28;20037;-75
2022/04/26 17:41:43;;;;;;;5.57;1.80;;;;;;;;;;5004643;28;20011;-75
2022/04/26 17:44:10;;;;;;;7.28;2.05;;;;;;;;;;4980982;28;20038;-75
2022/04/26 17:46:37;;;;;;;5.05;1.88;;;;;;;;;;4993079;28;22213;-75
2022/04/26 17:49:06;;;;;;;3.33;1.98;;;;;;;;;;4993804;28;20030;-75
2022/04/26 17:51:32;;;;;;;5.25;1.80;;;;;;;;;;4992865;28;20019;-76
2022/04/26 17:56:45;;;;;;;4.70;1.95;;;;;;;;;;5003935;28;20054;-75
2022/04/26 17:59:11;;;;;;;5.10;1.70;;;;;;;;;;4980762;28;20034;-75
2022/04/26 18:01:39;;;;;;;6.40;2.40;;;;;;;;;;4992540;28;20071;-75
2022/04/26 18:04:06;;;;;;;6.03;2.78;;;;;;;;;;4993292;28;20040;-75
2022/04/26 18:06:32;;;;;;;3.85;2.13;;;;;;;;;;4992263;28;20028;-75
2022/04/26 18:08:59;;;;;;;3.75;1.98;;;;;;;;;;4992420;28;20511;-75
2022/04/26 18:11:25;;;;;;;3.58;1.80;;;;;;;;;;4992609;28;20025;-75
2022/04/26 18:13:53;;;;;;;3.08;1.52;;;;;;;;;;4992611;28;20079;-75
2022/04/26 18:16:23;;;;;;;3.80;1.60;;;;;;;;;;4992692;28;20019;-75
2022/04/26 18:18:49;;;;;;;5.23;1.83;;;;;;;;;;4987904;28;20042;-75
2022/04/26 18:21:17;;;;;;;7.32;1.90;;;;;;;;;;4987660;28;20022;-75
2022/04/26 18:23:45;;;;;;;3.58;1.83;;;;;;;;;;5004274;28;20042;-75
2022/04/26 18:26:12;;;;;;;2.90;1.60;;;;;;;;;;4980579;28;20076;-75
2022/04/26 18:28:39;;;;;;;4.28;1.90;;;;;;;;;;4992291;28;20036;-75
2022/04/26 18:31:06;;;;;;;6.47;2.83;;;;;;;;;;4992927;28;20038;-75
2022/04/26 18:33:32;;;;;;;4.63;2.50;;;;;;;;;;4992381;28;20021;-75
2022/04/26 18:35:59;;;;;;;6.53;2.80;;;;;;;;;;4991901;28;20403;-75
2022/04/26 18:38:25;;;;;;;6.93;3.40;;;;;;;;;;4992122;28;20406;-75
2022/04/26 18:40:54;;;;;;;4.97;2.20;;;;;;;;;;5007361;28;20023;-75
2022/04/26 18:43:20;;;;;;;6.57;2.97;;;;;;;;;;4992280;28;20026;-75
2022/04/26 18:45:47;;;;;;;7.03;2.53;;;;;;;;;;4988208;28;20403;-75
2022/04/26 18:48:14;;;;;;;4.70;2.17;;;;;;;;;;4987671;28;20034;-75
2022/04/26 18:50:40;;;;;;;4.28;1.90;;;;;;;;;;4987396;28;20023;-75
2022/04/26 18:53:10;;;;;;;5.07;2.33;;;;;;;;;;4989279;28;20054;-75
2022/04/26 18:55:40;;;;;;;3.63;2.20;;;;;;;;;;4991361;28;20022;-75
2022/04/26 18:58:06;;;;;;;13.15;4.88;;;;;;;;;;4988353;28;20080;-75
2022/04/26 19:00:33;;;;;;;13.63;4.72;;;;;;;;;;4987907;28;20023;-75
2022/04/26 19:03:00;;;;;;;10.30;3.85;;;;;;;;;;4987358;28;20023;-75
2022/04/26 19:05:27;;;;;;;8.98;4.30;;;;;;;;;;4987316;28;20024;-75
2022/04/26 19:07:53;;;;;;;8.68;3.55;;;;;;;;;;4992024;28;20034;-75
2022/04/26 19:13:04;;;;;;;8.15;4.10;;;;;;;;;;4996384;28;20030;-75
2022/04/26 19:15:31;;;;;;;8.75;4.20;;;;;;;;;;4995986;28;20026;-75
2022/04/26 19:17:57;;;;;;;6.50;3.88;;;;;;;;;;4995885;28;20038;-75
2022/04/26 19:20:24;;;;;;;6.13;3.85;;;;;;;;;;4995224;28;20391;-75
2022/04/26 19:22:50;;;;;;;8.63;4.50;;;;;;;;;;4995656;28;20030;-75
2022/04/26 19:25:17;;;;;;;8.25;4.03;;;;;;;;;;4995954;28;20039;-75